createdAt,value
2022-11-16T00:01:33.435Z,8.29
2022-11-16T00:04:01.254Z,8.26
2022-11-16T00:06:28.260Z,8.27
2022-11-16T00:09:14.529Z,8.24
2022-11-16T00:11:42.517Z,8.23
2022-11-16T00:14:09.402Z,8.20
2022-11-16T00:16:36.032Z,8.17
2022-11-16T00:19:04.633Z,8.13
2022-11-16T00:21:31.656Z,8.14
2022-11-16T00:23:58.620Z,8.12
2022-11-16T00:26:25.228Z,8.13
2022-11-16T00:28:53.986Z,8.13
2022-11-16T00:31:21.105Z,8.08
2022-11-16T00:33:48.054Z,8.03
2022-11-16T00:36:14.855Z,8.02
2022-11-16T00:38:41.733Z,8.03
2022-11-16T00:41:08.492Z,8.05
2022-11-16T00:43:35.428Z,8.06
2022-11-16T00:46:04.264Z,8.03
2022-11-16T00:48:31.101Z,7.97
2022-11-16T00:50:57.882Z,7.96
2022-11-16T00:53:24.423Z,7.99
2022-11-16T00:55:51.191Z,8.02
2022-11-16T00:58:19.887Z,8.03
2022-11-16T01:00:51.342Z,8.06
2022-11-16T01:03:19.695Z,8.08
2022-11-16T01:05:46.231Z,8.12
2022-11-16T01:08:14.166Z,8.10
2022-11-16T01:10:41.623Z,8.10
2022-11-16T01:13:10.943Z,8.12
2022-11-16T01:15:37.426Z,8.14
2022-11-16T01:18:03.945Z,8.17
2022-11-16T01:20:31.814Z,8.17
2022-11-16T01:22:58.535Z,8.17
2022-11-16T01:25:25.062Z,8.19
2022-11-16T01:27:51.665Z,8.20
2022-11-16T01:30:25.344Z,8.22
2022-11-16T01:33:05.398Z,8.23
2022-11-16T01:35:33.384Z,8.26
2022-11-16T01:37:59.900Z,8.28
2022-11-16T01:40:27.096Z,8.27
2022-11-16T01:42:55.144Z,8.27
2022-11-16T01:45:23.574Z,8.28
2022-11-16T01:47:53.606Z,8.31
2022-11-16T01:50:23.066Z,8.32
2022-11-16T01:52:54.243Z,8.30
2022-11-16T01:55:22.600Z,8.29
2022-11-16T01:58:15.251Z,8.29
2022-11-16T02:00:42.133Z,8.28
2022-11-16T02:03:27.654Z,8.28
2022-11-16T02:06:04.308Z,8.28
2022-11-16T02:09:00.675Z,8.26
2022-11-16T02:11:39.689Z,8.24
2022-11-16T02:14:15.554Z,8.22
2022-11-16T02:16:48.427Z,8.17
2022-11-16T02:19:29.386Z,8.11
2022-11-16T02:21:59.194Z,8.08
2022-11-16T02:24:46.989Z,8.11
2022-11-16T02:27:28.618Z,8.12
2022-11-16T02:29:57.028Z,8.16
2022-11-16T02:32:27.087Z,8.14
2022-11-16T02:34:56.493Z,8.17
2022-11-16T02:37:24.683Z,8.20
2022-11-16T02:39:53.389Z,8.22
2022-11-16T02:42:23.026Z,8.17
2022-11-16T02:44:52.153Z,8.10
2022-11-16T02:47:22.225Z,8.04
2022-11-16T02:49:52.237Z,8.00
2022-11-16T02:52:19.727Z,7.91
2022-11-16T02:54:47.392Z,7.87
2022-11-16T02:57:23.626Z,7.87
2022-11-16T02:59:51.905Z,7.89
2022-11-16T03:02:23.453Z,7.90
2022-11-16T03:04:52.169Z,7.91
2022-11-16T03:07:23.298Z,7.96
2022-11-16T03:09:51.347Z,8.01
2022-11-16T03:12:20.290Z,8.06
2022-11-16T03:14:49.486Z,8.09
2022-11-16T03:17:20.903Z,8.11
2022-11-16T03:19:53.888Z,8.09
2022-11-16T03:22:26.426Z,8.04
2022-11-16T03:24:55.142Z,8.00
2022-11-16T03:27:25.345Z,7.96
2022-11-16T03:29:58.977Z,7.94
2022-11-16T03:32:29.243Z,7.90
2022-11-16T03:35:03.250Z,7.90
2022-11-16T03:37:32.352Z,7.94
2022-11-16T03:40:01.321Z,7.96
2022-11-16T03:42:31.878Z,8.00
2022-11-16T03:44:59.224Z,8.04
2022-11-16T03:47:25.891Z,8.08
2022-11-16T03:49:53.187Z,8.11
2022-11-16T03:52:21.472Z,8.12
2022-11-16T03:54:50.341Z,8.17
2022-11-16T03:57:18.829Z,8.21
2022-11-16T03:59:52.312Z,8.24
2022-11-16T04:02:20.676Z,8.25
2022-11-16T04:05:10.663Z,8.25
2022-11-16T04:07:58.045Z,8.25
2022-11-16T04:10:44.070Z,8.25
2022-11-16T04:13:31.117Z,8.28
2022-11-16T04:16:16.510Z,8.31
2022-11-16T04:19:03.202Z,8.33
2022-11-16T04:21:51.601Z,8.32
2022-11-16T04:24:22.917Z,8.30
2022-11-16T04:27:09.117Z,8.27
2022-11-16T04:29:36.360Z,8.29
2022-11-16T04:32:21.506Z,8.27
2022-11-16T04:35:06.766Z,8.26
2022-11-16T04:37:49.340Z,8.27
2022-11-16T04:40:23.137Z,8.27
2022-11-16T04:42:53.415Z,8.26
2022-11-16T04:45:38.714Z,8.25
2022-11-16T04:48:07.533Z,8.26
2022-11-16T04:50:36.193Z,8.26
2022-11-16T04:53:03.429Z,8.27
2022-11-16T04:55:33.550Z,8.30
2022-11-16T04:58:00.734Z,8.31
2022-11-16T05:00:27.467Z,8.33
2022-11-16T05:03:00.780Z,8.38
2022-11-16T05:05:28.520Z,8.42
2022-11-16T05:07:55.623Z,8.44
2022-11-16T05:10:26.952Z,8.47
2022-11-16T05:12:55.790Z,8.51
2022-11-16T05:15:23.349Z,8.54
2022-11-16T05:17:51.354Z,8.54
2022-11-16T05:20:40.648Z,8.55
2022-11-16T05:23:28.801Z,8.58
2022-11-16T05:25:58.802Z,8.58
2022-11-16T05:28:27.477Z,8.61
2022-11-16T05:30:54.157Z,8.66
2022-11-16T05:33:23.170Z,8.71
2022-11-16T05:35:51.085Z,8.73
2022-11-16T05:38:19.062Z,8.77
2022-11-16T05:40:48.966Z,8.81
2022-11-16T05:43:15.715Z,8.83
2022-11-16T05:45:53.103Z,8.87
2022-11-16T05:48:20.095Z,8.86
2022-11-16T05:50:47.679Z,8.88
2022-11-16T05:53:21.037Z,8.91
2022-11-16T05:55:48.603Z,8.93
2022-11-16T05:58:16.757Z,9.00
2022-11-16T06:00:45.733Z,9.01
2022-11-16T06:03:13.712Z,9.01
2022-11-16T06:05:40.950Z,9.01
2022-11-16T06:08:09.513Z,9.01
2022-11-16T06:10:37.206Z,9.02
2022-11-16T06:13:05.080Z,9.05
2022-11-16T06:15:32.250Z,9.08
2022-11-16T06:17:58.898Z,9.08
2022-11-16T06:20:27.253Z,9.10
2022-11-16T06:22:54.444Z,9.14
2022-11-16T06:25:22.177Z,9.15
2022-11-16T06:27:48.731Z,9.17
2022-11-16T06:30:19.698Z,9.16
2022-11-16T06:32:46.491Z,9.17
2022-11-16T06:35:13.121Z,9.20
2022-11-16T06:37:41.414Z,9.21
2022-11-16T06:40:09.329Z,9.22
2022-11-16T06:42:41.110Z,9.23
2022-11-16T06:45:10.210Z,9.25
2022-11-16T06:47:40.756Z,9.28
2022-11-16T06:50:07.836Z,9.32
2022-11-16T06:52:34.646Z,9.34
2022-11-16T06:55:03.170Z,9.38
2022-11-16T06:57:35.666Z,9.39
2022-11-16T07:00:04.252Z,9.41
2022-11-16T07:02:32.728Z,9.42
2022-11-16T07:05:03.467Z,9.40
2022-11-16T07:07:31.374Z,9.41
2022-11-16T07:09:58.086Z,9.43
2022-11-16T07:12:27.279Z,9.46
2022-11-16T07:14:56.409Z,9.44
2022-11-16T07:17:24.416Z,9.44
2022-11-16T07:19:52.367Z,9.45
2022-11-16T07:22:18.947Z,9.44
2022-11-16T07:24:46.327Z,9.42
2022-11-16T07:27:13.066Z,9.47
2022-11-16T07:29:45.113Z,9.51
2022-11-16T07:32:32.104Z,9.54
2022-11-16T07:35:06.930Z,9.51
2022-11-16T07:37:33.507Z,9.54
2022-11-16T07:40:00.140Z,9.57
2022-11-16T07:42:27.952Z,9.58
2022-11-16T07:45:22.408Z,9.59
2022-11-16T07:47:54.346Z,9.62
2022-11-16T07:50:59.595Z,9.65
2022-11-16T07:53:26.225Z,9.64
2022-11-16T07:55:53.619Z,9.65
2022-11-16T07:58:21.276Z,9.67
2022-11-16T08:00:50.682Z,9.70
2022-11-16T08:03:21.895Z,9.70
2022-11-16T08:05:58.246Z,9.69
2022-11-16T08:08:24.784Z,9.71
2022-11-16T08:10:51.649Z,9.76
2022-11-16T08:13:18.835Z,9.79
2022-11-16T08:15:46.899Z,9.80
2022-11-16T08:18:14.840Z,9.80
2022-11-16T08:20:41.373Z,9.83
2022-11-16T08:23:08.319Z,9.88
2022-11-16T08:25:36.028Z,9.95
2022-11-16T08:28:02.961Z,9.97
2022-11-16T08:30:30.581Z,9.97
2022-11-16T08:32:58.066Z,9.97
2022-11-16T08:35:26.713Z,9.97
2022-11-16T08:37:53.250Z,10.00
2022-11-16T08:40:19.825Z,10.02
2022-11-16T08:42:47.773Z,10.02
2022-11-16T08:45:15.478Z,10.02
2022-11-16T08:47:42.491Z,10.04
2022-11-16T08:50:09.570Z,10.07
2022-11-16T08:52:38.700Z,10.08
2022-11-16T08:55:06.629Z,10.07
2022-11-16T08:57:33.386Z,10.11
2022-11-16T09:00:04.735Z,10.15
2022-11-16T09:02:31.553Z,10.17
2022-11-16T09:04:58.079Z,10.22
2022-11-16T09:07:24.880Z,10.26
2022-11-16T09:09:53.499Z,10.30
2022-11-16T09:12:20.286Z,10.32
2022-11-16T09:14:46.979Z,10.32
2022-11-16T09:17:14.871Z,10.36
2022-11-16T09:19:44.191Z,10.39
2022-11-16T09:22:10.926Z,10.43
2022-11-16T09:24:37.466Z,10.48
2022-11-16T09:27:07.082Z,10.47
2022-11-16T09:29:33.670Z,10.48
2022-11-16T09:32:00.413Z,10.49
2022-11-16T09:34:26.965Z,10.50
2022-11-16T09:36:53.545Z,10.52
2022-11-16T09:39:30.999Z,10.53
2022-11-16T09:42:01.548Z,10.59
2022-11-16T09:44:43.034Z,10.64
2022-11-16T09:47:15.153Z,10.68
2022-11-16T09:49:43.820Z,10.68
2022-11-16T09:52:14.084Z,10.71
2022-11-16T09:54:42.823Z,10.75
2022-11-16T09:57:12.769Z,10.80
2022-11-16T09:59:41.318Z,10.85
2022-11-16T10:02:16.754Z,10.88
2022-11-16T10:04:47.296Z,10.90
2022-11-16T10:07:14.901Z,10.91
2022-11-16T10:09:41.958Z,10.93
2022-11-16T10:12:11.993Z,10.95
2022-11-16T10:14:47.389Z,10.97
2022-11-16T10:17:20.210Z,11.02
2022-11-16T10:19:53.030Z,11.04
2022-11-16T10:22:24.802Z,11.07
2022-11-16T10:24:56.437Z,11.07
2022-11-16T10:27:30.784Z,11.09
2022-11-16T10:30:02.711Z,11.13
2022-11-16T10:32:32.954Z,11.16
2022-11-16T10:35:03.225Z,11.21
2022-11-16T10:37:31.231Z,11.31
2022-11-16T10:39:57.788Z,11.39
2022-11-16T10:42:31.150Z,11.45
2022-11-16T10:45:02.727Z,11.54
2022-11-16T10:47:36.645Z,11.60
2022-11-16T10:50:08.714Z,11.74
2022-11-16T10:52:35.343Z,11.86
2022-11-16T10:55:02.213Z,12.01
2022-11-16T10:57:53.177Z,12.11
2022-11-16T11:00:33.324Z,12.16
2022-11-16T11:03:01.871Z,12.14
2022-11-16T11:05:29.918Z,12.15
2022-11-16T11:08:01.733Z,12.11
2022-11-16T11:10:29.959Z,12.07
2022-11-16T11:13:05.135Z,12.08
2022-11-16T11:15:31.986Z,12.05
2022-11-16T11:18:17.460Z,12.04
2022-11-16T11:20:45.621Z,12.05
2022-11-16T11:23:14.049Z,12.05
2022-11-16T11:25:41.759Z,12.02
2022-11-16T11:28:19.727Z,11.96
2022-11-16T11:30:52.165Z,11.91
2022-11-16T11:33:23.549Z,11.85
2022-11-16T11:35:57.320Z,11.79
2022-11-16T11:38:23.874Z,11.73
2022-11-16T11:40:56.348Z,11.71
2022-11-16T11:43:27.341Z,11.68
2022-11-16T11:45:56.690Z,11.64
2022-11-16T11:48:36.402Z,11.62
2022-11-16T11:51:09.014Z,11.60
2022-11-16T11:53:46.591Z,11.60
2022-11-16T11:56:14.161Z,11.57
2022-11-16T11:58:41.609Z,11.58
2022-11-16T12:01:26.007Z,11.60
2022-11-16T12:04:05.202Z,11.67
2022-11-16T12:06:42.642Z,11.70
2022-11-16T12:09:25.355Z,11.75
2022-11-16T12:11:59.857Z,11.83
2022-11-16T12:14:32.346Z,11.91
2022-11-16T12:17:06.130Z,11.96
2022-11-16T12:19:45.839Z,12.02
2022-11-16T12:22:17.398Z,12.07
2022-11-16T12:24:53.901Z,12.15
2022-11-16T12:27:27.054Z,12.24
2022-11-16T12:29:59.217Z,12.33
2022-11-16T12:32:44.320Z,12.38
2022-11-16T12:35:21.574Z,12.46
2022-11-16T12:37:53.858Z,12.45
2022-11-16T12:40:30.346Z,12.44
2022-11-16T12:43:01.971Z,12.45
2022-11-16T12:45:35.422Z,12.46
2022-11-16T12:48:19.558Z,12.57
2022-11-16T12:50:53.436Z,12.82
2022-11-16T12:53:40.932Z,13.00
2022-11-16T12:56:12.326Z,13.08
2022-11-16T12:58:47.370Z,13.11
2022-11-16T13:01:17.261Z,13.08
2022-11-16T13:03:47.455Z,13.05
2022-11-16T13:06:18.910Z,13.01
2022-11-16T13:08:49.737Z,12.97
2022-11-16T13:11:20.633Z,12.92
2022-11-16T13:13:53.403Z,12.86
2022-11-16T13:16:21.504Z,12.81
2022-11-16T13:18:48.184Z,12.78
2022-11-16T13:21:28.368Z,12.76
2022-11-16T13:24:08.037Z,12.74
2022-11-16T13:26:38.767Z,12.73
2022-11-16T13:29:12.759Z,12.73
2022-11-16T13:31:42.613Z,12.72
2022-11-16T13:34:14.299Z,12.71
2022-11-16T13:36:45.017Z,12.68
2022-11-16T13:39:18.720Z,12.63
2022-11-16T13:41:49.185Z,12.58
2022-11-16T13:44:27.193Z,12.53
2022-11-16T13:46:56.958Z,12.51
2022-11-16T13:49:31.936Z,12.52
2022-11-16T13:52:11.647Z,12.56
2022-11-16T13:54:48.637Z,12.60
2022-11-16T13:57:23.637Z,12.63
2022-11-16T13:59:53.634Z,12.68
2022-11-16T14:02:30.712Z,12.68
2022-11-16T14:04:58.558Z,12.65
2022-11-16T14:07:31.312Z,12.65
2022-11-16T14:09:57.999Z,12.64
2022-11-16T14:12:57.733Z,12.63
2022-11-16T14:15:25.845Z,12.63
2022-11-16T14:17:53.622Z,12.65
2022-11-16T14:20:38.116Z,12.61
2022-11-16T14:23:11.709Z,12.59
2022-11-16T14:25:40.499Z,12.56
2022-11-16T14:28:13.228Z,12.54
2022-11-16T14:30:46.900Z,12.49
2022-11-16T14:33:16.503Z,12.47
2022-11-16T14:35:43.129Z,12.44
2022-11-16T14:38:17.833Z,12.37
2022-11-16T14:40:46.208Z,12.30
2022-11-16T14:43:17.514Z,12.22
2022-11-16T14:45:47.157Z,12.16
2022-11-16T14:48:15.224Z,12.06
2022-11-16T14:50:43.554Z,11.97
2022-11-16T14:53:12.192Z,11.91
2022-11-16T14:55:42.541Z,11.81
2022-11-16T14:58:15.984Z,11.72
2022-11-16T15:00:51.702Z,11.60
2022-11-16T15:03:18.484Z,11.52
2022-11-16T15:05:44.983Z,11.45
2022-11-16T15:08:14.916Z,11.37
2022-11-16T15:10:49.508Z,11.30
2022-11-16T15:13:20.513Z,11.19
2022-11-16T15:15:47.286Z,11.07
2022-11-16T15:18:17.631Z,10.96
2022-11-16T15:20:48.707Z,10.87
2022-11-16T15:23:15.563Z,10.81
2022-11-16T15:25:43.311Z,10.73
2022-11-16T15:28:16.004Z,10.66
2022-11-16T15:30:45.068Z,10.63
2022-11-16T15:33:15.856Z,10.63
2022-11-16T15:35:42.392Z,10.62
2022-11-16T15:38:13.800Z,10.62
2022-11-16T15:40:43.192Z,10.60
2022-11-16T15:43:10.467Z,10.60
2022-11-16T15:45:38.745Z,10.60
2022-11-16T15:48:05.734Z,10.62
2022-11-16T15:50:32.378Z,10.61
2022-11-16T15:52:59.790Z,10.56
2022-11-16T15:55:30.621Z,10.50
2022-11-16T15:57:59.235Z,10.46
2022-11-16T16:00:26.737Z,10.41
2022-11-16T16:02:55.391Z,10.37
2022-11-16T16:05:32.418Z,10.33
2022-11-16T16:07:59.564Z,10.27
2022-11-16T16:10:26.461Z,10.22
2022-11-16T16:12:54.226Z,10.20
2022-11-16T16:15:22.806Z,10.19
2022-11-16T16:17:49.603Z,10.14
2022-11-16T16:20:19.559Z,10.05
2022-11-16T16:22:46.356Z,9.97
2022-11-16T16:25:34.030Z,9.92
2022-11-16T16:28:00.565Z,9.91
2022-11-16T16:30:27.976Z,9.89
2022-11-16T16:32:54.512Z,9.90
2022-11-16T16:35:23.662Z,9.89
2022-11-16T16:37:50.922Z,9.84
2022-11-16T16:40:17.921Z,9.78
2022-11-16T16:42:44.730Z,9.67
2022-11-16T16:45:14.889Z,9.54
2022-11-16T16:47:41.378Z,9.42
2022-11-16T16:50:08.757Z,9.36
2022-11-16T16:52:36.735Z,9.27
2022-11-16T16:55:03.806Z,9.22
2022-11-16T16:57:30.486Z,9.18
2022-11-16T16:59:57.060Z,9.13
2022-11-16T17:02:26.067Z,9.08
2022-11-16T17:04:52.617Z,8.99
2022-11-16T17:07:19.183Z,8.89
2022-11-16T17:09:47.112Z,8.81
2022-11-16T17:12:13.649Z,8.74
2022-11-16T17:14:40.209Z,8.73
2022-11-16T17:17:06.723Z,8.75
2022-11-16T17:19:33.223Z,8.73
2022-11-16T17:22:00.007Z,8.73
2022-11-16T17:24:26.818Z,8.69
2022-11-16T17:26:54.773Z,8.66
2022-11-16T17:29:21.386Z,8.61
2022-11-16T17:31:48.029Z,8.58
2022-11-16T17:34:14.666Z,8.58
2022-11-16T17:36:41.397Z,8.56
2022-11-16T17:39:07.888Z,8.54
2022-11-16T17:41:34.597Z,8.51
2022-11-16T17:44:02.636Z,8.45
2022-11-16T17:46:29.202Z,8.41
2022-11-16T17:48:56.128Z,8.38
2022-11-16T17:51:23.843Z,8.33
2022-11-16T17:53:50.878Z,8.27
2022-11-16T17:56:18.846Z,8.22
2022-11-16T17:58:45.565Z,8.17
2022-11-16T18:01:14.192Z,8.12
2022-11-16T18:03:40.766Z,8.09
2022-11-16T18:06:08.690Z,8.12
2022-11-16T18:08:35.889Z,8.17
2022-11-16T18:11:06.334Z,8.19
2022-11-16T18:13:33.487Z,8.24
2022-11-16T18:16:04.475Z,8.23
2022-11-16T18:18:32.449Z,8.24
2022-11-16T18:20:59.182Z,8.22
2022-11-16T18:23:25.722Z,8.18
2022-11-16T18:25:52.246Z,8.12
2022-11-16T18:28:18.993Z,8.06
2022-11-16T18:30:45.743Z,8.01
2022-11-16T18:33:12.405Z,7.99
2022-11-16T18:35:40.405Z,7.98
2022-11-16T18:38:08.253Z,7.96
2022-11-16T18:40:35.024Z,7.93
2022-11-16T18:43:01.484Z,7.93
2022-11-16T18:45:28.182Z,7.93
2022-11-16T18:47:54.680Z,7.90
2022-11-16T18:50:26.492Z,7.85
2022-11-16T18:52:56.557Z,7.78
2022-11-16T18:55:23.267Z,7.72
2022-11-16T18:57:49.759Z,7.63
2022-11-16T19:00:19.143Z,7.54
2022-11-16T19:02:45.641Z,7.47
2022-11-16T19:05:12.160Z,7.39
2022-11-16T19:07:38.932Z,7.32
2022-11-16T19:10:08.043Z,7.25
2022-11-16T19:12:34.511Z,7.22
2022-11-16T19:15:01.236Z,7.22
2022-11-16T19:17:27.888Z,7.21
2022-11-16T19:19:54.600Z,7.21
2022-11-16T19:22:21.246Z,7.20
2022-11-16T19:24:47.963Z,7.18
2022-11-16T19:27:16.641Z,7.17
2022-11-16T19:29:43.304Z,7.16
2022-11-16T19:32:09.757Z,7.17
2022-11-16T19:34:36.386Z,7.15
2022-11-16T19:37:02.968Z,7.16
2022-11-16T19:39:29.437Z,7.15
2022-11-16T19:41:55.923Z,7.15
2022-11-16T19:44:24.076Z,7.18
2022-11-16T19:46:53.023Z,7.20
2022-11-16T19:49:21.653Z,7.18
2022-11-16T19:51:48.732Z,7.17
2022-11-16T19:54:15.262Z,7.15
2022-11-16T19:56:42.186Z,7.15
2022-11-16T19:59:08.929Z,7.14
2022-11-16T20:01:36.858Z,7.12
2022-11-16T20:04:03.579Z,7.08
2022-11-16T20:06:31.082Z,7.03
2022-11-16T20:09:00.335Z,7.00
2022-11-16T20:11:27.893Z,6.98
2022-11-16T20:13:55.968Z,6.95
2022-11-16T20:16:23.497Z,6.91
2022-11-16T20:18:52.068Z,6.83
2022-11-16T20:21:21.802Z,6.74
2022-11-16T20:23:49.232Z,6.69
2022-11-16T20:26:15.949Z,6.65
2022-11-16T20:28:43.407Z,6.65
2022-11-16T20:31:10.911Z,6.63
2022-11-16T20:33:37.749Z,6.60
2022-11-16T20:36:08.019Z,6.59
2022-11-16T20:38:35.367Z,6.57
2022-11-16T20:41:08.960Z,6.54
2022-11-16T20:43:36.044Z,6.49
2022-11-16T20:46:03.489Z,6.47
2022-11-16T20:48:30.082Z,6.43
2022-11-16T20:50:56.756Z,6.37
2022-11-16T20:53:27.390Z,6.31
2022-11-16T20:55:54.374Z,6.25
2022-11-16T20:58:23.775Z,6.21
2022-11-16T21:00:51.144Z,6.20
2022-11-16T21:03:17.949Z,6.21
2022-11-16T21:05:45.107Z,6.22
2022-11-16T21:08:12.104Z,6.19
2022-11-16T21:10:40.527Z,6.14
2022-11-16T21:13:30.463Z,6.14
2022-11-16T21:15:57.927Z,6.15
2022-11-16T21:18:30.405Z,6.11
2022-11-16T21:20:58.828Z,6.02
2022-11-16T21:23:25.674Z,5.89
2022-11-16T21:25:53.526Z,5.78
2022-11-16T21:28:25.305Z,5.73
2022-11-16T21:30:56.102Z,5.67
2022-11-16T21:33:22.847Z,5.61
2022-11-16T21:35:49.342Z,5.54
2022-11-16T21:38:15.854Z,5.48
2022-11-16T21:40:43.722Z,5.43
2022-11-16T21:43:11.928Z,5.41
2022-11-16T21:45:38.529Z,5.40
2022-11-16T21:48:05.263Z,5.38
2022-11-16T21:50:32.528Z,5.41
2022-11-16T21:52:59.473Z,5.44
2022-11-16T21:55:26.193Z,5.45
2022-11-16T21:57:52.693Z,5.42
2022-11-16T22:00:21.018Z,5.39
2022-11-16T22:02:47.686Z,5.35
2022-11-16T22:05:33.153Z,5.32
2022-11-16T22:08:03.622Z,5.33
2022-11-16T22:10:30.379Z,5.33
2022-11-16T22:12:56.922Z,5.35
2022-11-16T22:15:25.493Z,5.37
2022-11-16T22:17:52.033Z,5.33
2022-11-16T22:20:18.762Z,5.26
2022-11-16T22:22:45.334Z,5.20
2022-11-16T22:25:13.931Z,5.17
2022-11-16T22:27:58.784Z,5.18
2022-11-16T22:30:29.371Z,5.19
2022-11-16T22:32:55.847Z,5.21
2022-11-16T22:35:22.353Z,5.18
2022-11-16T22:37:48.849Z,5.15
2022-11-16T22:40:17.926Z,5.16
2022-11-16T22:42:44.703Z,5.19
2022-11-16T22:45:12.054Z,5.20
2022-11-16T22:47:39.983Z,5.21
2022-11-16T22:50:06.631Z,5.21
2022-11-16T22:52:33.536Z,5.20
2022-11-16T22:55:00.266Z,5.19
2022-11-16T22:57:26.716Z,5.20
2022-11-16T22:59:53.551Z,5.20
2022-11-16T23:02:20.099Z,5.19
2022-11-16T23:04:48.289Z,5.17
2022-11-16T23:07:15.130Z,5.11
2022-11-16T23:09:42.475Z,5.10
2022-11-16T23:12:27.726Z,5.09
2022-11-16T23:15:13.002Z,5.08
2022-11-16T23:17:39.541Z,5.07
2022-11-16T23:20:26.962Z,5.05
2022-11-16T23:23:11.972Z,5.03
2022-11-16T23:25:57.222Z,5.00
2022-11-16T23:28:23.861Z,4.96
2022-11-16T23:30:50.475Z,4.89
2022-11-16T23:33:16.987Z,4.84
2022-11-16T23:35:45.095Z,4.84
2022-11-16T23:38:13.176Z,4.83
2022-11-16T23:40:39.854Z,4.83
2022-11-16T23:43:25.594Z,4.83
2022-11-16T23:45:52.156Z,4.83
2022-11-16T23:48:18.832Z,4.83
2022-11-16T23:50:46.950Z,4.82
2022-11-16T23:53:14.027Z,4.81
2022-11-16T23:55:40.911Z,4.80
2022-11-16T23:58:11.327Z,4.81
